createdAt,value
2019-02-27T00:03:16.648Z,20.93
2019-02-27T00:08:20.381Z,20.57
2019-02-27T00:13:24.945Z,19.63
2019-02-27T00:18:29.126Z,19.50
2019-02-27T00:23:32.810Z,19.17
2019-02-27T00:28:36.456Z,19.13
2019-02-27T00:33:40.104Z,18.30
2019-02-27T00:38:43.864Z,18.43
2019-02-27T00:43:47.597Z,19.60
2019-02-27T00:48:51.264Z,19.47
2019-02-27T00:53:55.963Z,21.13
2019-02-27T00:59:00.822Z,20.77
2019-02-27T01:04:04.586Z,20.70
2019-02-27T01:09:08.749Z,21.53
2019-02-27T01:14:12.470Z,19.50
2019-02-27T01:19:16.152Z,19.80
2019-02-27T01:24:19.809Z,19.47
2019-02-27T01:29:23.462Z,22.17
2019-02-27T01:34:27.107Z,21.50
2019-02-27T01:39:30.777Z,19.67
2019-02-27T01:44:34.521Z,21.10
2019-02-27T01:49:38.259Z,21.33
2019-02-27T01:54:41.909Z,19.33
2019-02-27T01:59:45.625Z,21.50
2019-02-27T02:04:52.945Z,23.60
2019-02-27T02:09:55.243Z,22.87
2019-02-27T02:15:06.905Z,25.03
2019-02-27T02:20:20.353Z,22.13
2019-02-27T02:25:47.435Z,21.50
2019-02-27T02:30:54.435Z,20.13
2019-02-27T02:36:04.143Z,21.10
2019-02-27T02:41:30.001Z,19.23
2019-02-27T02:46:56.565Z,19.77
2019-02-27T02:52:22.968Z,19.27
2019-02-27T02:57:48.485Z,19.77
2019-02-27T03:03:11.256Z,21.90
2019-02-27T03:08:29.619Z,17.07
2019-02-27T03:13:52.382Z,20.83
2019-02-27T03:19:15.069Z,19.80
2019-02-27T03:24:30.750Z,19.87
2019-02-27T03:29:51.999Z,19.80
2019-02-27T03:35:13.945Z,18.97
2019-02-27T03:40:35.412Z,20.47
2019-02-27T03:45:47.089Z,23.03
2019-02-27T03:50:54.782Z,21.17
2019-02-27T03:56:16.660Z,18.10
2019-02-27T04:01:42.500Z,23.33
2019-02-27T04:07:05.331Z,19.37
2019-02-27T04:12:08.997Z,20.30
2019-02-27T04:17:12.680Z,20.23
2019-02-27T04:22:16.615Z,21.53
2019-02-27T04:27:21.200Z,22.07
2019-02-27T04:32:25.174Z,21.93
2019-02-27T04:37:28.918Z,21.23
2019-02-27T04:42:32.614Z,21.00
2019-02-27T04:47:36.290Z,18.90
2019-02-27T04:52:40.009Z,19.13
2019-02-27T04:57:43.666Z,21.37
2019-02-27T05:02:47.324Z,21.77
2019-02-27T05:07:54.125Z,23.73
2019-02-27T05:12:56.366Z,28.17
2019-02-27T05:18:00.024Z,23.63
2019-02-27T05:23:04.286Z,18.90
2019-02-27T05:28:07.938Z,23.30
2019-02-27T05:33:11.582Z,19.27
2019-02-27T05:38:15.324Z,19.00
2019-02-27T05:43:19.020Z,22.67
2019-02-27T05:48:22.760Z,19.73
2019-02-27T05:53:26.414Z,24.53
2019-02-27T05:58:30.122Z,19.17
2019-02-27T06:03:33.780Z,20.50
2019-02-27T06:08:38.146Z,19.53
2019-02-27T06:13:41.958Z,18.97
2019-02-27T06:18:45.603Z,23.03
2019-02-27T06:23:49.258Z,18.90
2019-02-27T06:28:52.981Z,17.93
2019-02-27T06:33:56.668Z,18.40
2019-02-27T06:39:00.960Z,19.50
2019-02-27T06:44:04.759Z,20.67
2019-02-27T06:49:08.483Z,18.10
2019-02-27T06:54:12.209Z,20.40
2019-02-27T06:59:17.884Z,20.23
2019-02-27T07:04:21.321Z,19.47
2019-02-27T07:09:24.976Z,21.00
2019-02-27T07:14:28.715Z,21.13
2019-02-27T07:19:32.381Z,16.17
2019-02-27T07:24:36.039Z,19.40
2019-02-27T07:29:39.684Z,17.27
2019-02-27T07:34:43.416Z,17.55
2019-02-27T07:39:47.671Z,16.45
2019-02-27T07:44:51.893Z,15.48
2019-02-27T07:49:56.193Z,14.07
2019-02-27T07:55:00.423Z,16.25
2019-02-27T08:00:04.555Z,15.83
2019-02-27T08:05:09.052Z,14.50
2019-02-27T08:10:17.993Z,13.75
2019-02-27T08:15:22.182Z,16.48
2019-02-27T08:20:26.349Z,14.20
2019-02-27T08:25:30.624Z,15.63
2019-02-27T08:30:34.816Z,14.93
2019-02-27T08:35:39.009Z,14.65
2019-02-27T08:40:42.633Z,15.45
2019-02-27T08:45:46.828Z,15.83
2019-02-27T08:50:51.105Z,14.55
2019-02-27T08:55:54.854Z,17.15
2019-02-27T09:00:59.748Z,15.55
2019-02-27T09:06:03.947Z,14.63
2019-02-27T09:11:08.144Z,14.58
2019-02-27T09:16:12.338Z,15.08
2019-02-27T09:21:17.232Z,17.05
2019-02-27T09:26:21.556Z,16.30
2019-02-27T09:31:25.761Z,15.70
2019-02-27T09:36:29.990Z,15.95
2019-02-27T09:41:34.189Z,14.87
2019-02-27T09:46:37.855Z,14.65
2019-02-27T09:51:42.154Z,15.30
2019-02-27T09:56:46.355Z,16.55
2019-02-27T10:01:50.550Z,14.53
2019-02-27T10:06:54.762Z,14.75
2019-02-27T10:11:58.956Z,15.03
2019-02-27T10:17:03.159Z,14.68
2019-02-27T10:22:06.758Z,14.15
2019-02-27T10:27:10.943Z,17.12
2019-02-27T10:32:15.145Z,14.18
2019-02-27T10:37:19.448Z,14.18
2019-02-27T10:42:23.271Z,15.55
2019-02-27T10:47:27.539Z,15.00
2019-02-27T10:52:31.733Z,14.55
2019-02-27T10:57:38.341Z,14.43
2019-02-27T11:02:41.874Z,15.55
2019-02-27T11:07:46.603Z,14.73
2019-02-27T11:12:51.049Z,14.28
2019-02-27T11:17:55.627Z,13.88
2019-02-27T11:22:59.833Z,14.65
2019-02-27T11:28:04.127Z,15.70
2019-02-27T11:33:08.518Z,14.85
2019-02-27T11:38:12.850Z,15.13
2019-02-27T11:43:17.270Z,14.40
2019-02-27T11:48:22.861Z,14.30
2019-02-27T11:53:27.339Z,14.23
2019-02-27T11:58:31.908Z,13.60
2019-02-27T12:03:36.107Z,13.32
2019-02-27T12:08:40.307Z,13.30
2019-02-27T12:13:44.515Z,13.35
2019-02-27T12:18:48.709Z,11.08
2019-02-27T12:23:52.924Z,11.70
2019-02-27T12:28:57.134Z,11.60
2019-02-27T12:34:03.343Z,10.95
2019-02-27T12:39:08.607Z,9.65
2019-02-27T12:44:12.255Z,10.18
2019-02-27T12:49:16.886Z,10.55
2019-02-27T12:54:22.416Z,10.18
2019-02-27T12:59:26.724Z,10.32
2019-02-27T13:04:30.916Z,10.23
2019-02-27T13:09:35.118Z,9.78
2019-02-27T13:14:39.281Z,7.90
2019-02-27T13:19:43.483Z,9.20
2019-02-27T13:24:50.262Z,8.50
2019-02-27T13:29:56.744Z,8.35
2019-02-27T13:34:59.042Z,6.80
2019-02-27T13:40:03.242Z,8.48
2019-02-27T13:45:12.667Z,8.85
2019-02-27T13:50:16.821Z,9.38
2019-02-27T13:55:21.824Z,9.83
2019-02-27T14:00:28.340Z,10.32
2019-02-27T14:05:35.416Z,12.28
2019-02-27T14:10:38.494Z,12.05
2019-02-27T14:15:42.811Z,12.30
2019-02-27T14:20:47.065Z,13.58
2019-02-27T14:25:51.261Z,13.75
2019-02-27T14:30:55.467Z,11.55
2019-02-27T14:35:59.761Z,12.35
2019-02-27T14:41:04.017Z,11.78
2019-02-27T14:46:11.442Z,11.25
2019-02-27T14:51:14.276Z,15.78
2019-02-27T14:56:18.479Z,11.73
2019-02-27T15:01:22.709Z,11.33
2019-02-27T15:06:27.026Z,12.07
2019-02-27T15:11:31.225Z,10.53
2019-02-27T15:18:55.825Z,10.72
2019-02-27T15:24:01.351Z,11.70
2019-02-27T15:29:05.750Z,12.30
2019-02-27T15:34:12.144Z,12.82
2019-02-27T15:39:20.306Z,11.70
2019-02-27T15:44:22.648Z,13.55
2019-02-27T15:49:26.922Z,12.53
2019-02-27T15:54:31.118Z,13.70
2019-02-27T15:59:40.873Z,9.70
2019-02-27T16:04:41.359Z,12.18
2019-02-27T16:09:46.175Z,11.20
2019-02-27T16:14:50.595Z,11.57
2019-02-27T16:19:54.872Z,12.80
2019-02-27T16:24:58.636Z,14.38
2019-02-27T16:30:02.364Z,16.40
2019-02-27T16:35:07.847Z,12.28
2019-02-27T16:40:17.658Z,19.15
2019-02-27T16:45:22.681Z,18.20
2019-02-27T16:50:28.126Z,22.48
2019-02-27T16:55:35.706Z,25.97
2019-02-27T17:00:38.900Z,17.85
2019-02-27T17:05:43.906Z,24.45
2019-02-27T17:10:51.697Z,29.37
2019-02-27T17:15:54.241Z,20.02
2019-02-27T17:20:58.573Z,44.40
2019-02-27T17:26:04.386Z,25.50
2019-02-27T17:31:11.746Z,25.02
2019-02-27T17:36:14.747Z,19.07
2019-02-27T17:41:18.942Z,24.67
2019-02-27T17:46:22.786Z,20.30
2019-02-27T17:51:27.176Z,18.27
2019-02-27T17:56:31.679Z,14.55
2019-02-27T18:01:36.131Z,13.45
2019-02-27T18:06:40.328Z,17.70
2019-02-27T18:11:44.717Z,14.87
2019-02-27T18:16:50.144Z,12.93
2019-02-27T18:21:55.395Z,12.35
2019-02-27T18:26:59.892Z,14.93
2019-02-27T18:32:06.494Z,12.73
2019-02-27T18:37:19.086Z,13.28
2019-02-27T18:42:25.082Z,13.15
2019-02-27T18:47:29.364Z,13.85
2019-02-27T18:52:33.789Z,15.75
2019-02-27T18:57:39.079Z,20.05
2019-02-27T19:02:43.666Z,18.70
2019-02-27T19:07:48.027Z,17.48
2019-02-27T19:12:52.900Z,16.50
2019-02-27T19:17:57.341Z,15.45
2019-02-27T19:23:01.632Z,13.20
2019-02-27T19:28:06.614Z,14.63
2019-02-27T19:33:10.818Z,17.82
2019-02-27T19:38:15.423Z,14.60
2019-02-27T19:43:21.149Z,12.93
2019-02-27T19:48:26.283Z,15.23
2019-02-27T19:53:31.746Z,14.00
2019-02-27T19:58:35.998Z,14.47
2019-02-27T20:03:40.229Z,15.40
2019-02-27T20:08:45.585Z,16.27
2019-02-27T20:13:50.247Z,14.00
2019-02-27T20:18:55.178Z,13.25
2019-02-27T20:24:01.531Z,15.15
2019-02-27T20:29:05.903Z,16.48
2019-02-27T20:34:11.807Z,16.77
2019-02-27T20:39:16.255Z,13.22
2019-02-27T20:44:20.478Z,12.70
2019-02-27T20:49:24.774Z,13.10
2019-02-27T20:54:29.051Z,15.40
2019-02-27T20:59:33.359Z,14.93
2019-02-27T21:04:39.108Z,16.35
2019-02-27T21:09:45.195Z,15.25
2019-02-27T21:14:49.454Z,14.85
2019-02-27T21:19:53.676Z,13.38
2019-02-27T21:24:57.957Z,14.00
2019-02-27T21:30:02.180Z,14.03
2019-02-27T21:35:06.600Z,12.98
2019-02-27T21:40:11.759Z,12.73
2019-02-27T21:45:18.044Z,13.78
2019-02-27T21:50:22.306Z,13.00
2019-02-27T21:55:26.522Z,14.33
2019-02-27T22:00:31.220Z,13.37
2019-02-27T22:05:42.528Z,13.13
2019-02-27T22:10:41.437Z,13.20
2019-02-27T22:15:45.626Z,13.03
2019-02-27T22:20:49.923Z,12.75
2019-02-27T22:25:54.116Z,15.80
2019-02-27T22:30:58.395Z,12.03
2019-02-27T22:36:03.045Z,12.55
2019-02-27T22:41:09.533Z,14.80
2019-02-27T22:46:13.682Z,12.63
2019-02-27T22:51:19.134Z,13.30
2019-02-27T22:56:23.318Z,13.08
2019-02-27T23:01:34.003Z,12.83
2019-02-27T23:06:38.304Z,12.90
2019-02-27T23:11:43.195Z,11.50
2019-02-27T23:16:47.389Z,13.20
2019-02-27T23:21:51.741Z,12.55
2019-02-27T23:26:55.932Z,12.68
2019-02-27T23:32:00.103Z,13.50
2019-02-27T23:37:04.477Z,11.20
2019-02-27T23:42:08.932Z,11.65
2019-02-27T23:47:13.160Z,11.63
2019-02-27T23:52:19.344Z,13.22
2019-02-27T23:57:24.458Z,12.30
